sensor_id;sensor_type;location;lat;lon;timestamp;temperature;humidity
3792;DHT22;1911;53.768;11.474;2023-02-28T00:01:20;-0.40;99.90
3792;DHT22;1911;53.768;11.474;2023-02-28T00:03:46;-0.50;99.90
3792;DHT22;1911;53.768;11.474;2023-02-28T00:06:11;-0.50;99.90
3792;DHT22;1911;53.768;11.474;2023-02-28T00:08:38;-0.50;99.90
3792;DHT22;1911;53.768;11.474;2023-02-28T00:11:06;-0.60;99.90
3792;DHT22;1911;53.768;11.474;2023-02-28T00:13:35;-0.60;99.90
3792;DHT22;1911;53.768;11.474;2023-02-28T00:16:10;-0.60;99.90
3792;DHT22;1911;53.768;11.474;2023-02-28T00:18:37;-0.70;99.90
3792;DHT22;1911;53.768;11.474;2023-02-28T00:21:03;-0.80;99.90
3792;DHT22;1911;53.768;11.474;2023-02-28T00:23:29;-0.70;99.90
3792;DHT22;1911;53.768;11.474;2023-02-28T00:25:55;-0.80;99.90
3792;DHT22;1911;53.768;11.474;2023-02-28T00:28:21;-0.80;99.90
3792;DHT22;1911;53.768;11.474;2023-02-28T00:30:46;-0.90;99.90
3792;DHT22;1911;53.768;11.474;2023-02-28T00:33:12;-0.90;99.90
3792;DHT22;1911;53.768;11.474;2023-02-28T00:35:38;-0.90;99.90
3792;DHT22;1911;53.768;11.474;2023-02-28T00:38:04;-1.00;99.90
3792;DHT22;1911;53.768;11.474;2023-02-28T00:40:30;-1.00;99.90
3792;DHT22;1911;53.768;11.474;2023-02-28T00:42:55;-1.00;99.90
3792;DHT22;1911;53.768;11.474;2023-02-28T00:45:21;-1.10;99.90
3792;DHT22;1911;53.768;11.474;2023-02-28T00:47:47;-1.10;99.90
3792;DHT22;1911;53.768;11.474;2023-02-28T00:50:18;-1.20;99.90
3792;DHT22;1911;53.768;11.474;2023-02-28T00:52:45;-1.20;99.90
3792;DHT22;1911;53.768;11.474;2023-02-28T00:55:11;-1.20;99.90
3792;DHT22;1911;53.768;11.474;2023-02-28T00:57:36;-1.20;99.90
3792;DHT22;1911;53.768;11.474;2023-02-28T01:00:03;-1.20;99.90
3792;DHT22;1911;53.768;11.474;2023-02-28T01:02:29;-1.30;99.90
3792;DHT22;1911;53.768;11.474;2023-02-28T01:04:55;-1.30;99.90
3792;DHT22;1911;53.768;11.474;2023-02-28T01:07:22;-1.30;99.90
3792;DHT22;1911;53.768;11.474;2023-02-28T01:09:48;-1.30;99.90
3792;DHT22;1911;53.768;11.474;2023-02-28T01:12:13;-1.30;99.90
3792;DHT22;1911;53.768;11.474;2023-02-28T01:14:39;-1.40;99.90
3792;DHT22;1911;53.768;11.474;2023-02-28T01:17:05;-1.40;99.90
3792;DHT22;1911;53.768;11.474;2023-02-28T01:19:30;-1.40;99.90
3792;DHT22;1911;53.768;11.474;2023-02-28T01:21:56;-1.50;99.90
3792;DHT22;1911;53.768;11.474;2023-02-28T01:24:22;-1.50;99.90
3792;DHT22;1911;53.768;11.474;2023-02-28T01:26:47;-1.50;99.90
3792;DHT22;1911;53.768;11.474;2023-02-28T01:29:13;-1.50;99.90
3792;DHT22;1911;53.768;11.474;2023-02-28T01:31:40;-1.50;99.90
3792;DHT22;1911;53.768;11.474;2023-02-28T01:34:05;-1.40;99.90
3792;DHT22;1911;53.768;11.474;2023-02-28T01:36:31;-1.40;99.90
3792;DHT22;1911;53.768;11.474;2023-02-28T01:38:57;-1.50;99.90
3792;DHT22;1911;53.768;11.474;2023-02-28T01:41:25;-1.50;99.90
3792;DHT22;1911;53.768;11.474;2023-02-28T01:44:05;-1.60;99.90
3792;DHT22;1911;53.768;11.474;2023-02-28T01:46:33;-1.60;99.90
3792;DHT22;1911;53.768;11.474;2023-02-28T01:51:45;-1.60;99.90
3792;DHT22;1911;53.768;11.474;2023-02-28T01:54:23;-1.60;99.90
3792;DHT22;1911;53.768;11.474;2023-02-28T01:56:54;-1.60;99.90
3792;DHT22;1911;53.768;11.474;2023-02-28T01:59:27;-1.70;99.90
3792;DHT22;1911;53.768;11.474;2023-02-28T02:01:56;-1.70;99.90
3792;DHT22;1911;53.768;11.474;2023-02-28T02:04:25;-1.60;99.90
3792;DHT22;1911;53.768;11.474;2023-02-28T02:06:52;-1.70;99.90
3792;DHT22;1911;53.768;11.474;2023-02-28T02:09:17;-1.70;99.90
3792;DHT22;1911;53.768;11.474;2023-02-28T02:11:43;-1.70;99.90
3792;DHT22;1911;53.768;11.474;2023-02-28T02:14:37;-1.70;99.90
3792;DHT22;1911;53.768;11.474;2023-02-28T02:17:29;-1.80;99.90
3792;DHT22;1911;53.768;11.474;2023-02-28T02:34:20;-1.80;99.90
3792;DHT22;1911;53.768;11.474;2023-02-28T02:37:13;-1.90;99.90
3792;DHT22;1911;53.768;11.474;2023-02-28T02:42:22;-1.90;99.90
3792;DHT22;1911;53.768;11.474;2023-02-28T02:45:00;-1.90;99.90
3792;DHT22;1911;53.768;11.474;2023-02-28T02:47:29;-1.90;99.90
3792;DHT22;1911;53.768;11.474;2023-02-28T02:49:57;-1.90;99.90
3792;DHT22;1911;53.768;11.474;2023-02-28T02:52:34;-2.00;99.90
3792;DHT22;1911;53.768;11.474;2023-02-28T02:55:02;-2.00;99.90
3792;DHT22;1911;53.768;11.474;2023-02-28T02:57:36;-2.00;99.90
3792;DHT22;1911;53.768;11.474;2023-02-28T03:00:05;-2.10;99.90
3792;DHT22;1911;53.768;11.474;2023-02-28T03:02:35;-2.10;99.90
3792;DHT22;1911;53.768;11.474;2023-02-28T03:05:07;-2.00;99.90
3792;DHT22;1911;53.768;11.474;2023-02-28T03:07:33;-2.10;99.90
3792;DHT22;1911;53.768;11.474;2023-02-28T03:09:59;-2.10;99.90
3792;DHT22;1911;53.768;11.474;2023-02-28T03:12:38;-2.10;99.90
3792;DHT22;1911;53.768;11.474;2023-02-28T03:15:08;-2.10;99.90
3792;DHT22;1911;53.768;11.474;2023-02-28T03:17:44;-2.20;99.90
3792;DHT22;1911;53.768;11.474;2023-02-28T03:20:40;-2.20;99.90
3792;DHT22;1911;53.768;11.474;2023-02-28T03:26:02;-2.30;99.90
3792;DHT22;1911;53.768;11.474;2023-02-28T03:32:17;-2.30;99.90
3792;DHT22;1911;53.768;11.474;2023-02-28T03:34:32;-2.40;99.90
3792;DHT22;1911;53.768;11.474;2023-02-28T03:37:10;-2.30;99.90
3792;DHT22;1911;53.768;11.474;2023-02-28T03:42:43;-2.40;99.90
3792;DHT22;1911;53.768;11.474;2023-02-28T03:45:14;-2.40;99.90
3792;DHT22;1911;53.768;11.474;2023-02-28T03:50:52;-2.30;99.90
3792;DHT22;1911;53.768;11.474;2023-02-28T03:53:25;-2.40;99.90
3792;DHT22;1911;53.768;11.474;2023-02-28T03:55:57;-2.40;99.90
3792;DHT22;1911;53.768;11.474;2023-02-28T04:01:15;-2.50;99.90
3792;DHT22;1911;53.768;11.474;2023-02-28T04:03:43;-2.50;99.90
3792;DHT22;1911;53.768;11.474;2023-02-28T04:06:15;-2.50;99.90
3792;DHT22;1911;53.768;11.474;2023-02-28T04:08:42;-2.50;99.90
3792;DHT22;1911;53.768;11.474;2023-02-28T04:11:21;-2.50;99.90
3792;DHT22;1911;53.768;11.474;2023-02-28T04:13:47;-2.50;99.90
3792;DHT22;1911;53.768;11.474;2023-02-28T04:16:13;-2.40;99.90
3792;DHT22;1911;53.768;11.474;2023-02-28T04:18:39;-2.20;99.90
3792;DHT22;1911;53.768;11.474;2023-02-28T04:21:06;-2.30;99.90
3792;DHT22;1911;53.768;11.474;2023-02-28T04:23:32;-2.50;99.90
3792;DHT22;1911;53.768;11.474;2023-02-28T04:25:58;-2.50;99.90
3792;DHT22;1911;53.768;11.474;2023-02-28T04:28:23;-2.50;99.90
3792;DHT22;1911;53.768;11.474;2023-02-28T04:30:56;-2.60;99.90
3792;DHT22;1911;53.768;11.474;2023-02-28T04:33:22;-2.60;99.90
3792;DHT22;1911;53.768;11.474;2023-02-28T04:35:47;-2.60;99.90
3792;DHT22;1911;53.768;11.474;2023-02-28T04:38:13;-2.60;99.90
3792;DHT22;1911;53.768;11.474;2023-02-28T04:40:38;-2.70;99.90
3792;DHT22;1911;53.768;11.474;2023-02-28T04:43:04;-2.70;99.90
3792;DHT22;1911;53.768;11.474;2023-02-28T04:45:30;-2.70;99.90
3792;DHT22;1911;53.768;11.474;2023-02-28T04:47:57;-2.80;99.90
3792;DHT22;1911;53.768;11.474;2023-02-28T04:50:23;-2.70;99.90
3792;DHT22;1911;53.768;11.474;2023-02-28T04:52:49;-2.70;99.90
3792;DHT22;1911;53.768;11.474;2023-02-28T04:55:14;-2.70;99.90
3792;DHT22;1911;53.768;11.474;2023-02-28T04:57:40;-2.70;99.90
3792;DHT22;1911;53.768;11.474;2023-02-28T05:00:08;-2.80;99.90
3792;DHT22;1911;53.768;11.474;2023-02-28T05:02:37;-2.80;99.90
3792;DHT22;1911;53.768;11.474;2023-02-28T05:05:05;-2.70;99.90
3792;DHT22;1911;53.768;11.474;2023-02-28T05:07:30;-2.80;99.90
3792;DHT22;1911;53.768;11.474;2023-02-28T05:09:56;-2.80;99.90
3792;DHT22;1911;53.768;11.474;2023-02-28T05:12:21;-2.70;99.90
3792;DHT22;1911;53.768;11.474;2023-02-28T05:14:47;-2.70;99.90
3792;DHT22;1911;53.768;11.474;2023-02-28T05:17:13;-2.80;99.90
3792;DHT22;1911;53.768;11.474;2023-02-28T05:19:38;-2.80;99.90
3792;DHT22;1911;53.768;11.474;2023-02-28T05:22:04;-2.90;99.90
3792;DHT22;1911;53.768;11.474;2023-02-28T05:24:29;-2.90;99.90
3792;DHT22;1911;53.768;11.474;2023-02-28T05:26:55;-2.90;99.90
3792;DHT22;1911;53.768;11.474;2023-02-28T05:29:21;-2.90;99.90
3792;DHT22;1911;53.768;11.474;2023-02-28T05:31:47;-2.90;99.90
3792;DHT22;1911;53.768;11.474;2023-02-28T05:34:13;-2.90;99.90
3792;DHT22;1911;53.768;11.474;2023-02-28T05:36:40;-2.90;99.90
3792;DHT22;1911;53.768;11.474;2023-02-28T05:39:06;-2.90;99.90
3792;DHT22;1911;53.768;11.474;2023-02-28T05:41:39;-2.90;99.90
3792;DHT22;1911;53.768;11.474;2023-02-28T05:44:04;-2.90;99.90
3792;DHT22;1911;53.768;11.474;2023-02-28T05:46:30;-2.90;99.90
3792;DHT22;1911;53.768;11.474;2023-02-28T05:48:56;-2.90;99.90
3792;DHT22;1911;53.768;11.474;2023-02-28T05:51:23;-3.00;99.90
3792;DHT22;1911;53.768;11.474;2023-02-28T05:53:48;-3.00;99.90
3792;DHT22;1911;53.768;11.474;2023-02-28T05:56:15;-2.90;99.90
3792;DHT22;1911;53.768;11.474;2023-02-28T05:58:40;-3.00;99.90
3792;DHT22;1911;53.768;11.474;2023-02-28T06:03:45;-3.00;99.90
3792;DHT22;1911;53.768;11.474;2023-02-28T06:06:11;-3.10;99.90
3792;DHT22;1911;53.768;11.474;2023-02-28T06:08:36;-3.10;99.90
3792;DHT22;1911;53.768;11.474;2023-02-28T06:11:05;-3.10;99.90
3792;DHT22;1911;53.768;11.474;2023-02-28T06:13:32;-3.00;99.90
3792;DHT22;1911;53.768;11.474;2023-02-28T06:16:00;-3.00;99.90
3792;DHT22;1911;53.768;11.474;2023-02-28T06:18:26;-2.90;99.90
3792;DHT22;1911;53.768;11.474;2023-02-28T06:20:53;-2.90;99.90
3792;DHT22;1911;53.768;11.474;2023-02-28T06:23:20;-2.90;99.90
3792;DHT22;1911;53.768;11.474;2023-02-28T06:25:46;-2.80;99.90
3792;DHT22;1911;53.768;11.474;2023-02-28T06:28:11;-2.80;99.90
3792;DHT22;1911;53.768;11.474;2023-02-28T06:30:38;-2.80;99.90
3792;DHT22;1911;53.768;11.474;2023-02-28T06:33:03;-2.70;99.90
3792;DHT22;1911;53.768;11.474;2023-02-28T06:35:29;-2.70;99.90
3792;DHT22;1911;53.768;11.474;2023-02-28T06:37:55;-2.60;99.90
3792;DHT22;1911;53.768;11.474;2023-02-28T06:40:20;-2.60;99.90
3792;DHT22;1911;53.768;11.474;2023-02-28T06:42:46;-2.60;99.90
3792;DHT22;1911;53.768;11.474;2023-02-28T06:45:12;-2.50;99.90
3792;DHT22;1911;53.768;11.474;2023-02-28T06:47:39;-2.40;99.90
3792;DHT22;1911;53.768;11.474;2023-02-28T06:50:06;-2.30;99.90
3792;DHT22;1911;53.768;11.474;2023-02-28T06:52:34;-2.10;99.90
3792;DHT22;1911;53.768;11.474;2023-02-28T06:55:04;-1.90;99.90
3792;DHT22;1911;53.768;11.474;2023-02-28T06:57:31;-1.60;99.90
3792;DHT22;1911;53.768;11.474;2023-02-28T06:59:58;-1.20;99.90
3792;DHT22;1911;53.768;11.474;2023-02-28T07:02:24;-0.90;99.90
3792;DHT22;1911;53.768;11.474;2023-02-28T07:04:50;-0.70;99.90
3792;DHT22;1911;53.768;11.474;2023-02-28T07:07:15;-0.60;99.90
3792;DHT22;1911;53.768;11.474;2023-02-28T07:09:41;-0.60;99.90
3792;DHT22;1911;53.768;11.474;2023-02-28T07:12:07;-0.60;99.90
3792;DHT22;1911;53.768;11.474;2023-02-28T07:14:32;0.00;99.90
3792;DHT22;1911;53.768;11.474;2023-02-28T07:16:58;0.40;99.90
3792;DHT22;1911;53.768;11.474;2023-02-28T07:19:23;1.20;99.90
3792;DHT22;1911;53.768;11.474;2023-02-28T07:21:49;1.30;99.90
3792;DHT22;1911;53.768;11.474;2023-02-28T07:24:14;1.10;99.90
3792;DHT22;1911;53.768;11.474;2023-02-28T07:26:41;1.10;99.90
3792;DHT22;1911;53.768;11.474;2023-02-28T07:29:07;1.20;99.90
3792;DHT22;1911;53.768;11.474;2023-02-28T07:31:32;1.50;99.90
3792;DHT22;1911;53.768;11.474;2023-02-28T07:33:58;2.50;99.90
3792;DHT22;1911;53.768;11.474;2023-02-28T07:36:23;3.70;99.90
3792;DHT22;1911;53.768;11.474;2023-02-28T07:38:49;5.70;99.90
3792;DHT22;1911;53.768;11.474;2023-02-28T07:41:19;6.80;99.90
3792;DHT22;1911;53.768;11.474;2023-02-28T07:43:46;7.60;99.90
3792;DHT22;1911;53.768;11.474;2023-02-28T07:46:14;7.70;99.90
3792;DHT22;1911;53.768;11.474;2023-02-28T07:48:43;8.40;99.90
3792;DHT22;1911;53.768;11.474;2023-02-28T07:51:09;8.80;99.90
3792;DHT22;1911;53.768;11.474;2023-02-28T07:53:35;8.10;99.90
3792;DHT22;1911;53.768;11.474;2023-02-28T07:56:02;8.00;99.90
3792;DHT22;1911;53.768;11.474;2023-02-28T07:58:29;8.30;99.90
3792;DHT22;1911;53.768;11.474;2023-02-28T08:00:55;8.70;99.90
3792;DHT22;1911;53.768;11.474;2023-02-28T08:03:22;7.60;99.90
3792;DHT22;1911;53.768;11.474;2023-02-28T08:05:48;6.60;99.90
3792;DHT22;1911;53.768;11.474;2023-02-28T08:08:15;6.70;99.90
3792;DHT22;1911;53.768;11.474;2023-02-28T08:10:40;7.30;99.90
3792;DHT22;1911;53.768;11.474;2023-02-28T08:13:06;7.20;99.90
3792;DHT22;1911;53.768;11.474;2023-02-28T08:15:32;7.20;99.90
3792;DHT22;1911;53.768;11.474;2023-02-28T08:17:58;7.20;99.90
3792;DHT22;1911;53.768;11.474;2023-02-28T08:20:25;6.90;99.90
3792;DHT22;1911;53.768;11.474;2023-02-28T08:22:50;6.60;99.90
3792;DHT22;1911;53.768;11.474;2023-02-28T08:25:16;6.20;99.90
3792;DHT22;1911;53.768;11.474;2023-02-28T08:27:42;6.00;99.90
3792;DHT22;1911;53.768;11.474;2023-02-28T08:30:10;5.90;99.90
3792;DHT22;1911;53.768;11.474;2023-02-28T08:32:38;5.40;99.90
3792;DHT22;1911;53.768;11.474;2023-02-28T08:35:04;4.80;99.90
3792;DHT22;1911;53.768;11.474;2023-02-28T08:37:30;4.60;99.90
3792;DHT22;1911;53.768;11.474;2023-02-28T08:39:56;3.90;99.90
3792;DHT22;1911;53.768;11.474;2023-02-28T08:42:22;3.90;99.90
3792;DHT22;1911;53.768;11.474;2023-02-28T08:44:48;3.70;99.90
3792;DHT22;1911;53.768;11.474;2023-02-28T08:47:14;3.40;99.90
3792;DHT22;1911;53.768;11.474;2023-02-28T08:49:39;3.20;99.90
3792;DHT22;1911;53.768;11.474;2023-02-28T08:52:05;3.20;99.90
3792;DHT22;1911;53.768;11.474;2023-02-28T08:54:32;3.10;99.90
3792;DHT22;1911;53.768;11.474;2023-02-28T08:56:58;3.20;99.90
3792;DHT22;1911;53.768;11.474;2023-02-28T08:59:24;3.20;99.90
3792;DHT22;1911;53.768;11.474;2023-02-28T09:01:50;3.30;99.90
3792;DHT22;1911;53.768;11.474;2023-02-28T09:04:15;3.50;99.90
3792;DHT22;1911;53.768;11.474;2023-02-28T09:06:41;3.60;99.90
3792;DHT22;1911;53.768;11.474;2023-02-28T09:09:06;3.80;99.90
3792;DHT22;1911;53.768;11.474;2023-02-28T09:11:34;3.90;99.90
3792;DHT22;1911;53.768;11.474;2023-02-28T09:14:00;3.80;99.90
3792;DHT22;1911;53.768;11.474;2023-02-28T09:16:26;3.80;99.90
3792;DHT22;1911;53.768;11.474;2023-02-28T09:18:52;3.80;99.90
3792;DHT22;1911;53.768;11.474;2023-02-28T09:21:18;3.60;99.90
3792;DHT22;1911;53.768;11.474;2023-02-28T09:23:45;3.40;99.90
3792;DHT22;1911;53.768;11.474;2023-02-28T09:26:23;3.30;99.90
3792;DHT22;1911;53.768;11.474;2023-02-28T09:28:49;3.30;99.90
3792;DHT22;1911;53.768;11.474;2023-02-28T09:31:19;3.20;99.90
3792;DHT22;1911;53.768;11.474;2023-02-28T09:33:52;3.70;99.90
3792;DHT22;1911;53.768;11.474;2023-02-28T09:36:19;4.80;99.90
3792;DHT22;1911;53.768;11.474;2023-02-28T09:38:45;5.40;99.90
3792;DHT22;1911;53.768;11.474;2023-02-28T09:41:21;5.20;99.90
3792;DHT22;1911;53.768;11.474;2023-02-28T09:43:50;5.30;99.90
3792;DHT22;1911;53.768;11.474;2023-02-28T09:46:38;5.70;99.90
3792;DHT22;1911;53.768;11.474;2023-02-28T09:49:17;6.40;99.90
3792;DHT22;1911;53.768;11.474;2023-02-28T09:52:04;6.30;99.90
3792;DHT22;1911;53.768;11.474;2023-02-28T09:54:32;6.30;99.90
3792;DHT22;1911;53.768;11.474;2023-02-28T09:57:21;6.20;99.90
3792;DHT22;1911;53.768;11.474;2023-02-28T10:06:00;6.00;99.90
3792;DHT22;1911;53.768;11.474;2023-02-28T10:08:49;5.90;99.90
3792;DHT22;1911;53.768;11.474;2023-02-28T10:11:21;5.40;99.90
3792;DHT22;1911;53.768;11.474;2023-02-28T10:14:22;4.90;99.90
3792;DHT22;1911;53.768;11.474;2023-02-28T10:16:58;4.80;99.90
3792;DHT22;1911;53.768;11.474;2023-02-28T10:19:38;4.80;99.90
3792;DHT22;1911;53.768;11.474;2023-02-28T10:22:17;4.90;99.90
3792;DHT22;1911;53.768;11.474;2023-02-28T10:24:59;5.10;99.90
3792;DHT22;1911;53.768;11.474;2023-02-28T10:27:34;5.20;99.90
3792;DHT22;1911;53.768;11.474;2023-02-28T10:30:10;5.10;99.90
3792;DHT22;1911;53.768;11.474;2023-02-28T10:32:37;5.10;99.90
3792;DHT22;1911;53.768;11.474;2023-02-28T10:35:20;5.10;99.90
3792;DHT22;1911;53.768;11.474;2023-02-28T10:37:51;5.10;99.90
3792;DHT22;1911;53.768;11.474;2023-02-28T10:45:25;5.50;99.90
3792;DHT22;1911;53.768;11.474;2023-02-28T10:56:01;5.90;99.90
3792;DHT22;1911;53.768;11.474;2023-02-28T11:01:20;5.80;99.90
3792;DHT22;1911;53.768;11.474;2023-02-28T11:03:47;5.70;99.90
3792;DHT22;1911;53.768;11.474;2023-02-28T11:06:20;5.60;99.90
3792;DHT22;1911;53.768;11.474;2023-02-28T11:08:52;5.70;99.90
3792;DHT22;1911;53.768;11.474;2023-02-28T11:11:27;5.80;99.90
3792;DHT22;1911;53.768;11.474;2023-02-28T11:14:03;5.80;99.90
3792;DHT22;1911;53.768;11.474;2023-02-28T11:16:34;6.00;99.90
3792;DHT22;1911;53.768;11.474;2023-02-28T11:19:00;6.00;99.90
3792;DHT22;1911;53.768;11.474;2023-02-28T11:21:30;5.90;99.90
3792;DHT22;1911;53.768;11.474;2023-02-28T11:24:05;6.00;99.90
3792;DHT22;1911;53.768;11.474;2023-02-28T11:26:44;6.00;99.90
3792;DHT22;1911;53.768;11.474;2023-02-28T11:29:22;6.00;99.90
3792;DHT22;1911;53.768;11.474;2023-02-28T11:34:35;6.00;99.90
3792;DHT22;1911;53.768;11.474;2023-02-28T11:37:01;5.90;99.90
3792;DHT22;1911;53.768;11.474;2023-02-28T11:39:31;5.90;99.90
3792;DHT22;1911;53.768;11.474;2023-02-28T11:51:08;5.70;99.90
3792;DHT22;1911;53.768;11.474;2023-02-28T11:56:23;5.90;99.90
3792;DHT22;1911;53.768;11.474;2023-02-28T12:12:49;6.00;99.90
3792;DHT22;1911;53.768;11.474;2023-02-28T12:21:36;6.00;99.90
3792;DHT22;1911;53.768;11.474;2023-02-28T12:26:57;5.90;99.90
3792;DHT22;1911;53.768;11.474;2023-02-28T12:29:28;6.00;99.90
3792;DHT22;1911;53.768;11.474;2023-02-28T12:32:14;6.00;99.90
3792;DHT22;1911;53.768;11.474;2023-02-28T12:34:46;6.00;99.90
3792;DHT22;1911;53.768;11.474;2023-02-28T12:37:37;6.00;99.90
3792;DHT22;1911;53.768;11.474;2023-02-28T12:40:12;6.00;99.90
3792;DHT22;1911;53.768;11.474;2023-02-28T12:42:43;6.00;99.90
3792;DHT22;1911;53.768;11.474;2023-02-28T12:45:13;6.00;99.90
3792;DHT22;1911;53.768;11.474;2023-02-28T12:47:44;6.00;99.90
3792;DHT22;1911;53.768;11.474;2023-02-28T12:50:11;5.90;99.90
3792;DHT22;1911;53.768;11.474;2023-02-28T12:55:52;6.10;99.90
3792;DHT22;1911;53.768;11.474;2023-02-28T13:01:04;6.10;99.90
3792;DHT22;1911;53.768;11.474;2023-02-28T13:03:51;6.10;99.90
3792;DHT22;1911;53.768;11.474;2023-02-28T13:06:59;6.10;99.90
3792;DHT22;1911;53.768;11.474;2023-02-28T13:09:31;6.10;99.90
3792;DHT22;1911;53.768;11.474;2023-02-28T13:11:58;6.00;99.90
3792;DHT22;1911;53.768;11.474;2023-02-28T13:19:34;6.10;99.90
3792;DHT22;1911;53.768;11.474;2023-02-28T13:22:01;6.00;99.90
3792;DHT22;1911;53.768;11.474;2023-02-28T13:29:28;6.00;99.90
3792;DHT22;1911;53.768;11.474;2023-02-28T13:34:38;6.20;99.90
3792;DHT22;1911;53.768;11.474;2023-02-28T13:39:53;6.50;99.90
3792;DHT22;1911;53.768;11.474;2023-02-28T13:48:01;6.70;99.90
3792;DHT22;1911;53.768;11.474;2023-02-28T13:50:38;6.50;99.90
3792;DHT22;1911;53.768;11.474;2023-02-28T13:58:53;6.30;99.90
3792;DHT22;1911;53.768;11.474;2023-02-28T14:06:52;6.40;99.90
3792;DHT22;1911;53.768;11.474;2023-02-28T14:09:39;6.40;99.90
3792;DHT22;1911;53.768;11.474;2023-02-28T14:18:21;6.20;99.90
3792;DHT22;1911;53.768;11.474;2023-02-28T14:20:49;6.20;99.90
3792;DHT22;1911;53.768;11.474;2023-02-28T14:29:15;6.10;99.90
3792;DHT22;1911;53.768;11.474;2023-02-28T14:31:58;6.10;99.90
3792;DHT22;1911;53.768;11.474;2023-02-28T14:37:02;6.10;99.90
3792;DHT22;1911;53.768;11.474;2023-02-28T14:39:30;6.10;99.90
3792;DHT22;1911;53.768;11.474;2023-02-28T14:41:57;6.20;99.90
3792;DHT22;1911;53.768;11.474;2023-02-28T14:44:28;6.20;99.90
3792;DHT22;1911;53.768;11.474;2023-02-28T14:46:59;6.30;99.90
3792;DHT22;1911;53.768;11.474;2023-02-28T14:49:37;6.30;99.90
3792;DHT22;1911;53.768;11.474;2023-02-28T14:52:19;6.30;99.90
3792;DHT22;1911;53.768;11.474;2023-02-28T14:54:57;6.20;99.90
3792;DHT22;1911;53.768;11.474;2023-02-28T15:02:39;6.10;99.90
3792;DHT22;1911;53.768;11.474;2023-02-28T15:07:47;6.00;99.90
3792;DHT22;1911;53.768;11.474;2023-02-28T15:10:23;5.90;99.90
3792;DHT22;1911;53.768;11.474;2023-02-28T15:12:57;5.90;99.90
3792;DHT22;1911;53.768;11.474;2023-02-28T15:18:40;5.80;99.90
3792;DHT22;1911;53.768;11.474;2023-02-28T15:21:25;5.70;99.90
3792;DHT22;1911;53.768;11.474;2023-02-28T15:23:55;5.70;99.90
3792;DHT22;1911;53.768;11.474;2023-02-28T15:26:37;5.70;99.90
3792;DHT22;1911;53.768;11.474;2023-02-28T15:29:24;5.60;99.90
3792;DHT22;1911;53.768;11.474;2023-02-28T15:32:06;5.50;99.90
3792;DHT22;1911;53.768;11.474;2023-02-28T15:34:39;5.40;99.90
3792;DHT22;1911;53.768;11.474;2023-02-28T15:40:05;5.20;99.90
3792;DHT22;1911;53.768;11.474;2023-02-28T15:42:31;5.20;99.90
3792;DHT22;1911;53.768;11.474;2023-02-28T15:44:57;5.20;99.90
3792;DHT22;1911;53.768;11.474;2023-02-28T15:47:25;5.30;99.90
3792;DHT22;1911;53.768;11.474;2023-02-28T15:49:59;5.30;99.90
3792;DHT22;1911;53.768;11.474;2023-02-28T15:52:38;5.40;99.90
3792;DHT22;1911;53.768;11.474;2023-02-28T15:57:44;5.30;99.90
3792;DHT22;1911;53.768;11.474;2023-02-28T16:00:18;5.30;99.90
3792;DHT22;1911;53.768;11.474;2023-02-28T16:02:46;5.30;99.90
3792;DHT22;1911;53.768;11.474;2023-02-28T16:05:18;5.20;99.90
3792;DHT22;1911;53.768;11.474;2023-02-28T16:07:44;5.20;99.90
3792;DHT22;1911;53.768;11.474;2023-02-28T16:10:11;5.10;99.90
3792;DHT22;1911;53.768;11.474;2023-02-28T16:12:38;5.00;99.90
3792;DHT22;1911;53.768;11.474;2023-02-28T16:15:20;4.90;99.90
3792;DHT22;1911;53.768;11.474;2023-02-28T16:17:50;4.80;99.90
3792;DHT22;1911;53.768;11.474;2023-02-28T16:20:20;4.80;99.90
3792;DHT22;1911;53.768;11.474;2023-02-28T16:22:46;4.70;99.90
3792;DHT22;1911;53.768;11.474;2023-02-28T16:25:13;4.60;99.90
3792;DHT22;1911;53.768;11.474;2023-02-28T16:27:39;4.50;99.90
3792;DHT22;1911;53.768;11.474;2023-02-28T16:30:17;4.50;99.90
3792;DHT22;1911;53.768;11.474;2023-02-28T16:32:44;4.40;99.90
3792;DHT22;1911;53.768;11.474;2023-02-28T16:35:10;4.30;99.90
3792;DHT22;1911;53.768;11.474;2023-02-28T16:37:36;4.20;99.90
3792;DHT22;1911;53.768;11.474;2023-02-28T16:40:03;4.20;99.90
3792;DHT22;1911;53.768;11.474;2023-02-28T16:42:28;4.10;99.90
3792;DHT22;1911;53.768;11.474;2023-02-28T16:44:56;4.00;99.90
3792;DHT22;1911;53.768;11.474;2023-02-28T16:47:23;4.00;99.90
3792;DHT22;1911;53.768;11.474;2023-02-28T16:49:49;3.90;99.90
3792;DHT22;1911;53.768;11.474;2023-02-28T16:52:15;3.80;99.90
3792;DHT22;1911;53.768;11.474;2023-02-28T16:54:41;3.70;99.90
3792;DHT22;1911;53.768;11.474;2023-02-28T16:57:17;3.60;99.90
3792;DHT22;1911;53.768;11.474;2023-02-28T16:59:44;3.60;99.90
3792;DHT22;1911;53.768;11.474;2023-02-28T17:02:14;3.50;99.90
3792;DHT22;1911;53.768;11.474;2023-02-28T17:04:41;3.40;99.90
3792;DHT22;1911;53.768;11.474;2023-02-28T17:07:11;3.30;99.90
3792;DHT22;1911;53.768;11.474;2023-02-28T17:09:38;3.20;99.90
3792;DHT22;1911;53.768;11.474;2023-02-28T17:12:04;3.10;99.90
3792;DHT22;1911;53.768;11.474;2023-02-28T17:14:29;3.10;99.90
3792;DHT22;1911;53.768;11.474;2023-02-28T17:16:55;3.00;99.90
3792;DHT22;1911;53.768;11.474;2023-02-28T17:19:20;2.90;99.90
3792;DHT22;1911;53.768;11.474;2023-02-28T17:21:46;2.90;99.90
3792;DHT22;1911;53.768;11.474;2023-02-28T17:24:12;2.90;99.90
3792;DHT22;1911;53.768;11.474;2023-02-28T17:26:40;2.90;99.90
3792;DHT22;1911;53.768;11.474;2023-02-28T17:29:14;2.80;99.90
3792;DHT22;1911;53.768;11.474;2023-02-28T17:31:40;2.90;99.90
3792;DHT22;1911;53.768;11.474;2023-02-28T17:34:05;2.70;99.90
3792;DHT22;1911;53.768;11.474;2023-02-28T17:36:32;2.70;99.90
3792;DHT22;1911;53.768;11.474;2023-02-28T17:38:59;2.70;99.90
3792;DHT22;1911;53.768;11.474;2023-02-28T17:41:25;2.70;99.90
3792;DHT22;1911;53.768;11.474;2023-02-28T17:43:52;2.60;99.90
3792;DHT22;1911;53.768;11.474;2023-02-28T17:46:21;2.60;99.90
3792;DHT22;1911;53.768;11.474;2023-02-28T17:48:48;2.60;99.90
3792;DHT22;1911;53.768;11.474;2023-02-28T17:51:15;2.60;99.90
3792;DHT22;1911;53.768;11.474;2023-02-28T17:53:41;2.50;99.90
3792;DHT22;1911;53.768;11.474;2023-02-28T17:56:16;2.40;99.90
3792;DHT22;1911;53.768;11.474;2023-02-28T17:58:43;2.40;99.90
3792;DHT22;1911;53.768;11.474;2023-02-28T18:01:11;2.40;99.90
3792;DHT22;1911;53.768;11.474;2023-02-28T18:03:37;2.30;99.90
3792;DHT22;1911;53.768;11.474;2023-02-28T18:06:03;2.20;99.90
3792;DHT22;1911;53.768;11.474;2023-02-28T18:08:29;2.00;99.90
3792;DHT22;1911;53.768;11.474;2023-02-28T18:10:56;2.00;99.90
3792;DHT22;1911;53.768;11.474;2023-02-28T18:13:21;1.90;99.90
3792;DHT22;1911;53.768;11.474;2023-02-28T18:15:47;1.80;99.90
3792;DHT22;1911;53.768;11.474;2023-02-28T18:18:13;1.80;99.90
3792;DHT22;1911;53.768;11.474;2023-02-28T18:20:41;1.70;99.90
3792;DHT22;1911;53.768;11.474;2023-02-28T18:23:07;1.70;99.90
3792;DHT22;1911;53.768;11.474;2023-02-28T18:25:32;1.60;99.90
3792;DHT22;1911;53.768;11.474;2023-02-28T18:27:58;1.50;99.90
3792;DHT22;1911;53.768;11.474;2023-02-28T18:30:31;1.40;99.90
3792;DHT22;1911;53.768;11.474;2023-02-28T18:33:00;1.40;99.90
3792;DHT22;1911;53.768;11.474;2023-02-28T18:35:26;1.40;99.90
3792;DHT22;1911;53.768;11.474;2023-02-28T18:38:11;1.30;99.90
3792;DHT22;1911;53.768;11.474;2023-02-28T18:40:38;1.30;99.90
3792;DHT22;1911;53.768;11.474;2023-02-28T18:43:04;1.20;99.90
3792;DHT22;1911;53.768;11.474;2023-02-28T18:45:30;1.10;99.90
3792;DHT22;1911;53.768;11.474;2023-02-28T18:47:56;1.10;99.90
3792;DHT22;1911;53.768;11.474;2023-02-28T18:50:22;1.10;99.90
3792;DHT22;1911;53.768;11.474;2023-02-28T18:52:47;1.10;99.90
3792;DHT22;1911;53.768;11.474;2023-02-28T18:55:13;1.00;99.90